LGSALGZA

Guest
Details From LGSA - Khania Souda
To LGZA - Dionysios Solomos
Flight Number -
Tags generated
Created
Modified
Stats Distance 215 nm / 398 km
Max Altitude 24,500 ft / 7,468 m
Waypoints 4
Social Downloads 0
Likes 0
Share VATSIM

Download

Looking for another format? Having issues loading an existing format? Contact us
Advertisement - Login to hide

Notes

Basic altitude profile: - Ascent Rate: 2500ft/min - Ascent Speed: 250kts - Cruise Altitude: 35000ft - Cruise Speed: 420kts - Descent Rate: 1500ft/min - Descent Speed: 250kts Options: - Use NATs: yes - Use PACOTS: yes - Use low airways: yes - Use high airways: yes

Route

LGSA SOKRI UJ65 TRL LGZA

ID Type Via Altitude Latitude Longitude Leg Dist Tot Dist Heading (true) Name
O LGSA APT - 0 ft / 0 m 35.53159˚ 24.15118˚ - 0 nm - Khania Souda
SOKRI FIX - 18,500 ft / 5,639 m 36.25778˚ 23.47194˚ 54 nm 54 nm 323° / 323° -
TRL VOR UJ65 (AWY-HI) 24,500 ft / 7,468 m 37.40275˚ 22.33963˚ 87 nm 142 nm 322° / 321° TRIPOLIS VOR-DME
O LGZA APT - 0 ft / 0 m 37.75123˚ 20.88411˚ 72 nm 214 nm 287° / 286° Dionysios Solomos

Altitude Profile

Advertisement - Login to hide

Weather


0- 5 10 15 20 25 30 35+ Temperature / ° C

Clouds and Precipitation
Forecast for 2018-05-24 12:00 UTC. Updated an hour ago

Ground ~20,000 ft ~40,000 ft Winds

LGSA

Details ICAO LGSA (CHQ)
Name Khania Souda
Region Greece
Timezone Europe/Athens (UTC+3.0)
Stats Elevation 490 ft / 149 m (AMSL)
Location 35.531592° 24.151184°
Runways 1
Magnetic Variation 4.324° E

METAR

LGSA 241220Z 29018G28KT 9999 FEW025 24/17 Q1012

Decode

TAF

TAF LGSA 241100Z 2412/2512 29018KT 9999 SCT015 TEMPO 2412/2418 28018G28KT

Decode

Departure Runways

ID Width Length Bearing (true) Bearing (mag) Surface Threshold Offset Overrun Length
11 148 ft / 45 m 10,967 ft / 3,343 m 111.40° 107.08° Asphalt 0 ft / 0 m 735 ft / 224 m
29 148 ft / 45 m 10,967 ft / 3,343 m 291.42° 287.10° Asphalt 0 ft / 0 m 900 ft / 274 m

LGZA

Details ICAO LGZA (ZTH)
Name Dionysios Solomos
Region Greece
Timezone Europe/Athens (UTC+3.0)
Stats Elevation 14 ft / 4 m (AMSL)
Location 37.751230° 20.884106°
Runways 1
Magnetic Variation 4.115° E

METAR

LGZA 241220Z 33008KT 9999 SCT020 SCT070 25/15 Q1013

Decode

TAF

Not found

Destination Runways

ID Width Length Bearing (true) Bearing (mag) Surface Threshold Offset Overrun Length
16 148 ft / 45 m 7,315 ft / 2,230 m 163.49° 159.37° Asphalt 715 ft / 218 m 112 ft / 34 m
34 148 ft / 45 m 7,315 ft / 2,230 m 343.49° 339.37° Asphalt 728 ft / 222 m 135 ft / 41 m